createdAt,value
2019-02-27T00:00:27.691Z,56.77
2019-02-27T00:02:57.200Z,48.07
2019-02-27T00:05:26.761Z,50.87
2019-02-27T00:07:56.086Z,58.53
2019-02-27T00:10:25.452Z,67.53
2019-02-27T00:12:54.789Z,52.27
2019-02-27T00:15:24.114Z,61.03
2019-02-27T00:17:53.478Z,61.10
2019-02-27T00:20:22.821Z,53.70
2019-02-27T00:22:52.154Z,63.17
2019-02-27T00:25:21.514Z,57.97
2019-02-27T00:27:50.849Z,63.13
2019-02-27T00:30:20.176Z,62.73
2019-02-27T00:32:51.276Z,62.97
2019-02-27T00:35:20.570Z,59.87
2019-02-27T00:37:52.155Z,60.13
2019-02-27T00:40:20.962Z,63.43
2019-02-27T00:42:54.050Z,62.50
2019-02-27T00:45:21.322Z,59.30
2019-02-27T00:47:52.821Z,61.27
2019-02-27T00:50:21.701Z,56.87
2019-02-27T00:52:51.688Z,58.97
2019-02-27T00:55:21.072Z,54.43
2019-02-27T00:57:51.813Z,55.17
2019-02-27T01:00:21.425Z,61.37
2019-02-27T01:02:53.077Z,61.73
2019-02-27T01:05:21.806Z,55.07
2019-02-27T01:07:53.818Z,57.27
2019-02-27T01:10:22.190Z,50.83
2019-02-27T01:12:51.946Z,58.27
2019-02-27T01:15:21.322Z,54.63
2019-02-27T01:17:50.681Z,50.53
2019-02-27T01:20:20.086Z,54.90
2019-02-27T01:22:49.409Z,53.70
2019-02-27T01:25:22.862Z,53.23
2019-02-27T01:27:49.802Z,52.73
2019-02-27T01:30:19.129Z,53.07
2019-02-27T01:32:48.497Z,49.57
2019-02-27T01:35:18.879Z,55.70
2019-02-27T01:37:48.337Z,52.13
2019-02-27T01:40:18.555Z,52.50
2019-02-27T01:42:48.014Z,50.80
2019-02-27T01:45:20.543Z,57.83
2019-02-27T01:47:48.390Z,51.37
2019-02-27T01:50:26.419Z,57.10
2019-02-27T01:52:55.781Z,50.13
2019-02-27T01:55:25.177Z,51.03
2019-02-27T01:57:54.517Z,49.60
2019-02-27T02:00:23.972Z,54.93
2019-02-27T02:02:53.385Z,49.43
2019-02-27T02:05:26.113Z,53.07
2019-02-27T02:07:53.939Z,52.07
2019-02-27T02:10:23.339Z,49.37
2019-02-27T02:12:55.883Z,49.43
2019-02-27T02:15:44.877Z,53.37
2019-02-27T02:18:32.191Z,50.00
2019-02-27T02:21:36.326Z,45.07
2019-02-27T02:24:25.239Z,47.53
2019-02-27T02:27:00.137Z,43.80
2019-02-27T02:29:53.658Z,43.47
2019-02-27T02:32:28.882Z,45.03
2019-02-27T02:35:17.411Z,42.33
2019-02-27T02:38:04.506Z,44.53
2019-02-27T02:41:09.728Z,45.37
2019-02-27T02:43:44.939Z,43.00
2019-02-27T02:46:28.534Z,45.07
2019-02-27T02:49:27.186Z,41.97
2019-02-27T02:52:05.556Z,44.47
2019-02-27T02:54:38.935Z,49.50
2019-02-27T02:57:20.101Z,43.90
2019-02-27T03:00:01.723Z,42.43
2019-02-27T03:02:39.799Z,44.53
2019-02-27T03:05:12.287Z,45.37
2019-02-27T03:07:47.710Z,40.27
2019-02-27T03:10:22.606Z,42.30
2019-02-27T03:13:12.667Z,41.10
2019-02-27T03:15:45.105Z,41.27
2019-02-27T03:18:17.511Z,41.10
2019-02-27T03:20:53.233Z,39.60
2019-02-27T03:23:52.538Z,41.30
2019-02-27T03:26:27.611Z,41.70
2019-02-27T03:29:17.474Z,42.07
2019-02-27T03:31:57.819Z,43.17
2019-02-27T03:34:32.744Z,42.57
2019-02-27T03:37:30.362Z,41.23
2019-02-27T03:40:20.593Z,45.50
2019-02-27T03:42:56.019Z,45.40
2019-02-27T03:45:30.994Z,41.13
2019-02-27T03:48:07.873Z,42.23
2019-02-27T03:50:40.265Z,41.10
2019-02-27T03:53:30.443Z,38.47
2019-02-27T03:56:20.709Z,41.07
2019-02-27T03:59:06.308Z,43.13
2019-02-27T04:01:37.298Z,39.13
2019-02-27T04:04:31.284Z,40.00
2019-02-27T04:07:03.671Z,38.33
2019-02-27T04:09:33.039Z,39.73
2019-02-27T04:12:02.411Z,42.40
2019-02-27T04:14:40.118Z,41.13
2019-02-27T04:17:07.001Z,40.90
2019-02-27T04:19:39.211Z,38.17
2019-02-27T04:22:06.747Z,51.67
2019-02-27T04:24:36.139Z,79.03
2019-02-27T04:27:05.514Z,47.73
2019-02-27T04:29:34.821Z,47.83
2019-02-27T04:32:04.161Z,44.27
2019-02-27T04:34:33.787Z,43.73
2019-02-27T04:37:03.115Z,40.53
2019-02-27T04:39:32.437Z,42.73
2019-02-27T04:42:01.810Z,44.10
2019-02-27T04:44:30.813Z,43.83
2019-02-27T04:46:59.727Z,48.03
2019-02-27T04:49:28.997Z,40.23
2019-02-27T04:51:58.326Z,38.60
2019-02-27T04:54:27.329Z,46.53
2019-02-27T04:56:57.591Z,42.87
2019-02-27T04:59:27.506Z,46.43
2019-02-27T05:01:56.852Z,45.37
2019-02-27T05:04:26.197Z,46.33
2019-02-27T05:06:55.210Z,51.03
2019-02-27T05:09:24.108Z,46.03
2019-02-27T05:11:53.080Z,49.37
2019-02-27T05:14:24.745Z,45.80
2019-02-27T05:16:53.003Z,46.33
2019-02-27T05:19:21.949Z,45.37
2019-02-27T05:21:52.575Z,45.87
2019-02-27T05:24:21.794Z,48.07
2019-02-27T05:26:51.144Z,48.33
2019-02-27T05:29:20.153Z,42.90
2019-02-27T05:31:50.237Z,52.17
2019-02-27T05:34:19.702Z,48.47
2019-02-27T05:36:48.941Z,48.67
2019-02-27T05:39:18.001Z,49.43
2019-02-27T05:41:47.298Z,44.63
2019-02-27T05:44:21.445Z,49.20
2019-02-27T05:46:47.675Z,46.53
2019-02-27T05:49:17.022Z,49.90
2019-02-27T05:51:46.034Z,50.50
2019-02-27T05:54:15.317Z,58.80
2019-02-27T05:56:44.344Z,51.23
2019-02-27T05:59:13.581Z,73.40
2019-02-27T06:01:42.922Z,59.27
2019-02-27T06:04:12.274Z,53.73
2019-02-27T06:06:45.035Z,62.03
2019-02-27T06:09:11.878Z,71.67
2019-02-27T06:11:40.815Z,56.60
2019-02-27T06:14:10.051Z,43.93
2019-02-27T06:16:40.848Z,54.57
2019-02-27T06:19:10.194Z,62.10
2019-02-27T06:21:39.195Z,57.30
2019-02-27T06:24:11.586Z,60.50
2019-02-27T06:26:39.476Z,87.13
2019-02-27T06:29:08.475Z,77.87
2019-02-27T06:31:39.437Z,57.70
2019-02-27T06:34:08.017Z,59.30
2019-02-27T06:36:42.026Z,58.67
2019-02-27T06:39:08.743Z,51.50
2019-02-27T06:41:39.858Z,57.73
2019-02-27T06:44:08.970Z,54.20
2019-02-27T06:46:38.218Z,72.53
2019-02-27T06:49:07.569Z,75.57
2019-02-27T06:51:36.906Z,59.67
2019-02-27T06:54:06.242Z,71.40
2019-02-27T06:56:35.606Z,63.70
2019-02-27T06:59:04.606Z,58.87
2019-02-27T07:01:33.845Z,62.13
2019-02-27T07:04:04.790Z,79.80
2019-02-27T07:06:33.810Z,87.00
2019-02-27T07:09:03.201Z,65.77
2019-02-27T07:11:32.570Z,56.43
2019-02-27T07:14:01.567Z,54.87
2019-02-27T07:16:30.806Z,50.80
2019-02-27T07:19:00.166Z,49.83
2019-02-27T07:21:32.725Z,52.07
2019-02-27T07:24:00.191Z,47.03
2019-02-27T07:26:29.465Z,50.07
2019-02-27T07:28:58.799Z,51.23
2019-02-27T07:31:28.187Z,45.73
2019-02-27T07:33:57.573Z,44.00
2019-02-27T07:36:26.914Z,49.70
2019-02-27T07:38:57.475Z,52.27
2019-02-27T07:41:27.305Z,48.87
2019-02-27T07:43:56.633Z,55.60
2019-02-27T07:46:25.964Z,46.47
2019-02-27T07:48:56.722Z,51.20
2019-02-27T07:51:26.361Z,50.00
2019-02-27T07:53:55.689Z,48.03
2019-02-27T07:56:25.049Z,46.20
2019-02-27T07:59:13.717Z,44.77
2019-02-27T08:01:44.046Z,49.27
2019-02-27T08:04:13.585Z,49.97
2019-02-27T08:06:42.924Z,40.53
2019-02-27T08:09:12.287Z,42.87
2019-02-27T08:11:41.621Z,44.87
2019-02-27T08:14:12.922Z,43.03
2019-02-27T08:16:42.022Z,41.63
2019-02-27T08:19:12.168Z,40.43
2019-02-27T08:21:41.666Z,42.57
2019-02-27T08:24:30.418Z,44.73
2019-02-27T08:26:59.751Z,39.30
2019-02-27T08:29:29.094Z,39.27
2019-02-27T08:32:01.016Z,33.87
2019-02-27T08:34:29.504Z,31.40
2019-02-27T08:36:58.843Z,32.57
2019-02-27T08:39:28.211Z,31.00
2019-02-27T08:41:57.551Z,34.10
2019-02-27T08:44:26.877Z,32.53
2019-02-27T08:46:56.261Z,29.83
2019-02-27T08:49:25.598Z,30.87
2019-02-27T08:51:54.950Z,30.83
2019-02-27T08:54:24.305Z,32.27
2019-02-27T08:56:53.637Z,29.77
2019-02-27T08:59:22.979Z,29.33
2019-02-27T09:01:55.418Z,31.17
2019-02-27T09:04:23.418Z,28.70
2019-02-27T09:06:52.822Z,30.93
2019-02-27T09:09:22.185Z,31.27
2019-02-27T09:11:51.526Z,30.30
2019-02-27T09:14:20.925Z,32.67
2019-02-27T09:16:50.293Z,35.60
2019-02-27T09:19:20.754Z,33.40
2019-02-27T09:21:50.255Z,38.83
2019-02-27T09:24:19.626Z,33.13
2019-02-27T09:26:48.962Z,34.50
2019-02-27T09:29:18.623Z,34.70
2019-02-27T09:31:51.058Z,36.13
2019-02-27T09:34:19.987Z,36.57
2019-02-27T09:36:49.429Z,38.63
2019-02-27T09:39:18.841Z,37.47
2019-02-27T09:41:48.401Z,37.53
2019-02-27T09:44:17.737Z,34.40
2019-02-27T09:46:47.176Z,31.40
2019-02-27T09:49:16.543Z,31.13
2019-02-27T09:51:45.985Z,32.67
2019-02-27T09:54:25.355Z,33.73
2019-02-27T09:56:56.592Z,33.40
2019-02-27T09:59:25.986Z,29.40
2019-02-27T10:01:57.166Z,32.33
2019-02-27T10:04:32.946Z,34.30
2019-02-27T10:07:02.358Z,31.47
2019-02-27T10:09:34.678Z,31.40
2019-02-27T10:12:02.806Z,30.08
2019-02-27T10:14:32.168Z,33.05
2019-02-27T10:17:01.605Z,30.87
2019-02-27T10:19:30.934Z,32.07
2019-02-27T10:22:00.314Z,30.50
2019-02-27T10:24:36.908Z,31.23
2019-02-27T10:27:05.664Z,28.27
2019-02-27T10:29:35.062Z,30.23
2019-02-27T10:32:04.413Z,31.33
2019-02-27T10:34:33.734Z,31.27
2019-02-27T10:37:03.236Z,30.67
2019-02-27T10:39:36.897Z,34.30
2019-02-27T10:42:03.709Z,33.80
2019-02-27T10:44:33.918Z,28.33
2019-02-27T10:47:03.780Z,29.93
2019-02-27T10:49:33.119Z,28.20
2019-02-27T10:52:02.486Z,29.57
2019-02-27T10:54:31.873Z,30.07
2019-02-27T10:57:01.212Z,30.13
2019-02-27T10:59:30.632Z,27.47
2019-02-27T11:01:59.974Z,27.03
2019-02-27T11:04:29.318Z,28.63
2019-02-27T11:06:58.687Z,29.13
2019-02-27T11:09:28.194Z,28.30
2019-02-27T11:11:57.541Z,26.70
2019-02-27T11:14:31.645Z,28.07
2019-02-27T11:17:02.170Z,29.10
2019-02-27T11:19:29.183Z,27.07
2019-02-27T11:21:59.094Z,25.93
2019-02-27T11:24:30.367Z,28.87
2019-02-27T11:27:00.706Z,30.13
2019-02-27T11:29:30.070Z,30.10
2019-02-27T11:31:59.406Z,31.80
2019-02-27T11:34:28.746Z,28.90
2019-02-27T11:36:58.120Z,26.20
2019-02-27T11:39:27.454Z,28.70
2019-02-27T11:41:56.795Z,27.90
2019-02-27T11:44:26.519Z,29.43
2019-02-27T11:46:59.000Z,30.93
2019-02-27T11:49:27.252Z,30.97
2019-02-27T11:51:58.979Z,29.57
2019-02-27T11:54:52.818Z,28.50
2019-02-27T11:57:22.944Z,28.33
2019-02-27T12:00:13.684Z,26.27
2019-02-27T12:02:45.263Z,26.43
2019-02-27T12:05:18.069Z,27.43
2019-02-27T12:07:50.564Z,26.27
2019-02-27T12:10:29.931Z,26.53
2019-02-27T12:13:00.953Z,25.77
2019-02-27T12:15:30.499Z,27.70
2019-02-27T12:18:01.348Z,25.63
2019-02-27T12:20:31.014Z,28.20
2019-02-27T12:23:00.359Z,25.07
2019-02-27T12:25:30.242Z,25.90
2019-02-27T12:28:01.111Z,26.67
2019-02-27T12:30:31.118Z,26.10
2019-02-27T12:33:00.490Z,25.50
2019-02-27T12:35:34.869Z,25.37
2019-02-27T12:38:08.100Z,20.97
2019-02-27T12:40:36.376Z,21.10
2019-02-27T12:43:05.879Z,22.67
2019-02-27T12:45:35.373Z,17.10
2019-02-27T12:48:05.009Z,18.43
2019-02-27T12:50:34.343Z,15.40
2019-02-27T12:53:03.679Z,18.27
2019-02-27T12:55:35.441Z,18.10
2019-02-27T12:58:04.146Z,18.20
2019-02-27T13:00:35.126Z,18.17
2019-02-27T13:03:08.391Z,17.03
2019-02-27T13:05:35.868Z,17.13
2019-02-27T13:08:05.195Z,16.33
2019-02-27T13:10:34.562Z,16.53
2019-02-27T13:13:03.896Z,17.20
2019-02-27T13:15:33.224Z,15.87
2019-02-27T13:18:02.594Z,14.87
2019-02-27T13:20:34.139Z,17.83
2019-02-27T13:23:05.195Z,17.37
2019-02-27T13:25:34.794Z,16.50
2019-02-27T13:28:04.406Z,14.97
2019-02-27T13:30:33.732Z,15.27
2019-02-27T13:33:13.061Z,15.73
2019-02-27T13:35:42.473Z,16.80
2019-02-27T13:38:11.820Z,15.47
2019-02-27T13:40:41.178Z,14.83
2019-02-27T13:43:10.525Z,13.93
2019-02-27T13:45:39.882Z,15.60
2019-02-27T13:48:08.432Z,16.70
2019-02-27T13:50:39.634Z,17.17
2019-02-27T13:53:08.966Z,15.93
2019-02-27T13:55:38.334Z,15.27
2019-02-27T13:58:07.670Z,17.40
2019-02-27T14:00:37.942Z,18.07
2019-02-27T14:03:12.170Z,15.37
2019-02-27T14:05:38.333Z,17.90
2019-02-27T14:08:07.749Z,17.67
2019-02-27T14:10:37.127Z,20.03
2019-02-27T14:13:09.757Z,17.00
2019-02-27T14:15:37.493Z,20.07
2019-02-27T14:18:06.855Z,16.33
2019-02-27T14:20:36.190Z,18.00
2019-02-27T14:23:05.529Z,17.40
2019-02-27T14:25:34.893Z,16.20
2019-02-27T14:28:04.230Z,17.53
2019-02-27T14:30:39.503Z,14.93
2019-02-27T14:33:10.934Z,17.47
2019-02-27T14:35:39.974Z,16.83
2019-02-27T14:38:09.313Z,18.50
2019-02-27T14:40:41.205Z,16.00
2019-02-27T14:43:09.834Z,16.00
2019-02-27T14:45:40.660Z,17.20
2019-02-27T14:48:10.493Z,16.43
2019-02-27T14:50:39.970Z,17.70
2019-02-27T14:53:09.297Z,17.30
2019-02-27T14:55:38.670Z,15.63
2019-02-27T14:58:08.001Z,16.50
2019-02-27T15:00:41.008Z,16.43
2019-02-27T15:03:14.318Z,15.73
2019-02-27T15:05:45.276Z,16.50
2019-02-27T15:08:14.875Z,18.73
2019-02-27T15:10:44.249Z,17.63
2019-02-27T15:13:13.590Z,19.17
2019-02-27T15:15:43.837Z,20.70
2019-02-27T15:18:14.075Z,16.53
2019-02-27T15:20:43.498Z,19.50
2019-02-27T15:23:12.827Z,22.30
2019-02-27T15:25:43.333Z,18.90
2019-02-27T15:28:13.490Z,20.00
2019-02-27T15:30:46.383Z,16.47
2019-02-27T15:33:17.206Z,20.23
2019-02-27T15:35:47.937Z,20.70
2019-02-27T15:38:26.938Z,17.63
2019-02-27T15:40:56.282Z,19.40
2019-02-27T15:43:30.590Z,16.90
2019-02-27T15:46:00.226Z,18.87
2019-02-27T15:48:29.797Z,19.83
2019-02-27T15:50:59.122Z,20.80
2019-02-27T15:53:28.531Z,18.47
2019-02-27T15:55:59.375Z,18.50
2019-02-27T15:58:31.229Z,19.10
2019-02-27T16:01:03.971Z,21.10
2019-02-27T16:03:36.516Z,18.43
2019-02-27T16:06:06.709Z,20.00
2019-02-27T16:08:36.357Z,21.17
2019-02-27T16:11:05.841Z,21.83
2019-02-27T16:13:35.432Z,19.97
2019-02-27T16:16:05.119Z,18.87
2019-02-27T16:18:36.893Z,20.03
2019-02-27T16:21:06.047Z,19.77
2019-02-27T16:23:37.567Z,20.00
2019-02-27T16:26:07.971Z,17.87
2019-02-27T16:28:37.628Z,20.23
2019-02-27T16:31:08.340Z,19.90
2019-02-27T16:33:37.923Z,19.97
2019-02-27T16:36:07.730Z,25.67
2019-02-27T16:38:41.130Z,28.00
2019-02-27T16:41:10.347Z,24.63
2019-02-27T16:43:41.292Z,19.50
2019-02-27T16:46:12.487Z,22.77
2019-02-27T16:48:42.106Z,21.60
2019-02-27T16:51:12.466Z,19.73
2019-02-27T16:53:43.070Z,18.93
2019-02-27T16:56:12.968Z,18.77
2019-02-27T16:58:42.499Z,20.90
2019-02-27T17:01:11.964Z,19.57
2019-02-27T17:03:41.390Z,19.67
2019-02-27T17:06:10.742Z,18.83
2019-02-27T17:08:40.110Z,19.60
2019-02-27T17:11:09.449Z,17.60
2019-02-27T17:13:38.953Z,18.57
2019-02-27T17:16:10.875Z,18.43
2019-02-27T17:18:39.358Z,20.10
2019-02-27T17:21:08.692Z,19.53
2019-02-27T17:23:38.121Z,22.33
2019-02-27T17:26:07.458Z,23.97
2019-02-27T17:28:36.797Z,22.03
2019-02-27T17:31:11.813Z,22.67
2019-02-27T17:33:37.993Z,24.33
2019-02-27T17:36:07.985Z,24.93
2019-02-27T17:38:37.341Z,23.53
2019-02-27T17:41:08.748Z,25.47
2019-02-27T17:43:37.738Z,29.67
2019-02-27T17:46:07.096Z,33.97
2019-02-27T17:48:36.434Z,31.83
2019-02-27T17:51:06.599Z,31.07
2019-02-27T17:53:36.101Z,26.40
2019-02-27T17:56:05.437Z,30.00
2019-02-27T17:58:34.985Z,21.27
2019-02-27T18:01:06.213Z,25.33
2019-02-27T18:03:36.651Z,23.43
2019-02-27T18:06:06.633Z,27.57
2019-02-27T18:08:36.009Z,26.33
2019-02-27T18:11:05.411Z,28.83
2019-02-27T18:13:36.193Z,27.63
2019-02-27T18:16:05.681Z,25.53
2019-02-27T18:18:35.014Z,47.33
2019-02-27T18:21:04.351Z,52.80
2019-02-27T18:23:33.727Z,62.37
2019-02-27T18:26:03.037Z,52.00
2019-02-27T18:28:32.974Z,42.13
2019-02-27T18:31:04.042Z,36.27
2019-02-27T18:33:33.374Z,27.47
2019-02-27T18:36:04.689Z,25.80
2019-02-27T18:38:33.765Z,27.33
2019-02-27T18:41:03.106Z,27.20
2019-02-27T18:43:32.425Z,27.10
2019-02-27T18:46:01.795Z,24.53
2019-02-27T18:48:31.125Z,24.83
2019-02-27T18:51:00.454Z,20.07
2019-02-27T18:53:29.826Z,25.37
2019-02-27T18:56:01.957Z,24.63
2019-02-27T18:58:30.284Z,21.60
2019-02-27T19:00:59.721Z,24.37
2019-02-27T19:03:29.057Z,26.17
2019-02-27T19:05:58.393Z,24.47
2019-02-27T19:08:28.229Z,22.53
2019-02-27T19:10:58.091Z,21.03
2019-02-27T19:13:27.485Z,25.77
2019-02-27T19:15:56.947Z,21.13
2019-02-27T19:18:26.316Z,22.00
2019-02-27T19:20:56.203Z,24.13
2019-02-27T19:23:26.781Z,19.03
2019-02-27T19:25:56.118Z,23.47
2019-02-27T19:28:25.708Z,22.73
2019-02-27T19:30:55.163Z,22.10
2019-02-27T19:33:24.567Z,19.43
2019-02-27T19:35:56.390Z,21.97
2019-02-27T19:38:24.704Z,21.57
2019-02-27T19:40:53.647Z,21.97
2019-02-27T19:43:22.881Z,20.73
2019-02-27T19:45:52.244Z,21.27
2019-02-27T19:48:21.642Z,21.83
2019-02-27T19:50:50.748Z,20.63
2019-02-27T19:53:19.876Z,20.97
2019-02-27T19:55:48.913Z,21.67
2019-02-27T19:58:18.383Z,18.90
2019-02-27T20:00:48.721Z,22.57
2019-02-27T20:03:18.389Z,24.13
2019-02-27T20:05:47.656Z,20.40
2019-02-27T20:08:17.175Z,19.60
2019-02-27T20:10:46.662Z,20.70
2019-02-27T20:13:16.238Z,21.33
2019-02-27T20:15:46.512Z,23.70
2019-02-27T20:18:15.838Z,21.30
2019-02-27T20:20:45.100Z,23.47
2019-02-27T20:23:14.089Z,24.07
2019-02-27T20:25:44.357Z,24.80
2019-02-27T20:28:13.917Z,24.23
2019-02-27T20:30:43.429Z,22.80
2019-02-27T20:33:12.570Z,24.03
2019-02-27T20:35:41.845Z,27.27
2019-02-27T20:38:15.370Z,28.83
2019-02-27T20:40:41.739Z,23.97
2019-02-27T20:43:11.062Z,26.33
2019-02-27T20:45:42.906Z,27.43
2019-02-27T20:48:11.563Z,24.33
2019-02-27T20:50:42.343Z,26.50
2019-02-27T20:53:12.082Z,25.73
2019-02-27T20:55:41.096Z,26.00
2019-02-27T20:58:10.441Z,27.93
2019-02-27T21:00:39.619Z,25.33
2019-02-27T21:03:09.081Z,27.10
2019-02-27T21:05:40.986Z,24.20
2019-02-27T21:08:09.077Z,28.20
2019-02-27T21:10:38.037Z,26.70
2019-02-27T21:13:07.436Z,31.97
2019-02-27T21:15:36.482Z,28.63
2019-02-27T21:18:05.473Z,23.73
2019-02-27T21:20:34.403Z,25.13
2019-02-27T21:23:09.279Z,26.27
2019-02-27T21:25:38.706Z,26.13
2019-02-27T21:28:08.036Z,25.63
2019-02-27T21:30:37.080Z,29.37
2019-02-27T21:33:08.323Z,28.67
2019-02-27T21:35:37.358Z,23.30
2019-02-27T21:38:06.782Z,30.60
2019-02-27T21:40:36.912Z,26.10
2019-02-27T21:43:06.014Z,24.53
2019-02-27T21:45:37.461Z,24.60
2019-02-27T21:48:05.555Z,26.17
2019-02-27T21:50:39.538Z,26.03
2019-02-27T21:53:05.533Z,27.00
2019-02-27T21:55:34.442Z,28.30
2019-02-27T21:58:03.353Z,28.80
2019-02-27T22:00:32.634Z,24.43
2019-02-27T22:03:05.039Z,29.60
2019-02-27T22:05:42.309Z,27.17
2019-02-27T22:08:05.469Z,28.67
2019-02-27T22:10:34.410Z,26.63
2019-02-27T22:13:09.641Z,27.10
2019-02-27T22:15:33.966Z,27.77
2019-02-27T22:18:03.209Z,30.60
2019-02-27T22:20:32.542Z,28.47
2019-02-27T22:23:01.572Z,27.83
2019-02-27T22:25:31.223Z,29.67
2019-02-27T22:28:00.624Z,26.43
2019-02-27T22:30:31.757Z,24.20
2019-02-27T22:33:01.011Z,26.50
2019-02-27T22:35:30.533Z,26.80
2019-02-27T22:37:59.555Z,26.97
2019-02-27T22:40:28.798Z,25.67
2019-02-27T22:42:57.801Z,29.10
2019-02-27T22:45:26.745Z,28.50
2019-02-27T22:47:57.547Z,28.63
2019-02-27T22:50:26.269Z,28.83
2019-02-27T22:52:55.440Z,41.10
2019-02-27T22:55:24.730Z,32.73
2019-02-27T22:57:54.872Z,35.73
2019-02-27T23:00:55.882Z,40.43
2019-02-27T23:03:25.796Z,41.77
2019-02-27T23:05:54.721Z,39.67
2019-02-27T23:08:24.103Z,38.63
2019-02-27T23:10:53.445Z,37.83
2019-02-27T23:13:22.770Z,39.70
2019-02-27T23:15:51.866Z,43.37
2019-02-27T23:18:20.789Z,40.60
2019-02-27T23:20:52.567Z,43.83
2019-02-27T23:23:20.338Z,47.60
2019-02-27T23:25:49.259Z,50.00
2019-02-27T23:28:18.494Z,49.97
2019-02-27T23:30:48.012Z,49.70
2019-02-27T23:33:17.002Z,51.50
2019-02-27T23:35:47.401Z,52.60
2019-02-27T23:38:16.553Z,57.60
2019-02-27T23:40:49.139Z,56.57
2019-02-27T23:43:16.506Z,56.27
2019-02-27T23:45:45.795Z,51.87
2019-02-27T23:48:15.100Z,56.53
2019-02-27T23:50:44.425Z,56.97
2019-02-27T23:53:15.210Z,58.97
2019-02-27T23:55:45.493Z,56.50
2019-02-27T23:58:14.970Z,57.20
